createdAt,value
2023-04-15T00:03:46.420Z,9.44
2023-04-15T00:08:49.355Z,9.46
2023-04-15T00:13:51.415Z,9.43
2023-04-15T00:18:53.202Z,9.44
2023-04-15T00:23:55.459Z,9.41
2023-04-15T00:28:57.236Z,9.32
2023-04-15T00:33:59.822Z,9.35
2023-04-15T00:39:02.925Z,9.33
2023-04-15T00:44:08.370Z,9.38
2023-04-15T00:49:10.352Z,9.37
2023-04-15T00:54:13.141Z,9.43
2023-04-15T00:59:18.732Z,9.44
2023-04-15T01:04:20.588Z,9.51
2023-04-15T01:09:22.485Z,9.43
2023-04-15T01:14:26.083Z,9.30
2023-04-15T01:19:28.807Z,9.28
2023-04-15T01:24:32.131Z,9.37
2023-04-15T01:29:38.505Z,9.41
2023-04-15T01:34:40.891Z,9.39
2023-04-15T01:39:42.681Z,9.39
2023-04-15T01:44:44.507Z,9.43
2023-04-15T01:49:47.031Z,9.47
2023-04-15T01:54:48.985Z,9.53
2023-04-15T01:59:51.085Z,9.58
2023-04-15T02:04:53.671Z,9.63
2023-04-15T02:09:55.431Z,9.51
2023-04-15T02:14:57.489Z,9.41
2023-04-15T02:19:59.741Z,9.42
2023-04-15T02:25:01.522Z,9.44
2023-04-15T02:30:04.130Z,9.34
2023-04-15T02:35:07.729Z,9.40
2023-04-15T02:40:12.228Z,9.43
2023-04-15T02:45:14.222Z,9.40
2023-04-15T02:50:17.301Z,9.41
2023-04-15T02:55:19.163Z,9.54
2023-04-15T03:00:21.008Z,9.44
2023-04-15T03:05:25.568Z,9.33
2023-04-15T03:10:27.456Z,9.37
2023-04-15T03:15:29.516Z,9.42
2023-04-15T03:20:31.724Z,9.47
2023-04-15T03:25:33.662Z,9.43
2023-04-15T03:30:36.075Z,9.42
2023-04-15T03:35:38.326Z,9.43
2023-04-15T03:40:43.429Z,9.39
2023-04-15T03:45:45.361Z,9.31
2023-04-15T03:50:47.294Z,9.35
2023-04-15T03:55:49.052Z,9.46
2023-04-15T04:00:50.867Z,9.46
2023-04-15T04:05:52.673Z,9.41
2023-04-15T04:10:54.458Z,9.31
2023-04-15T04:15:56.298Z,9.35
2023-04-15T04:20:58.298Z,9.26
2023-04-15T04:26:00.059Z,9.28
2023-04-15T04:31:01.886Z,9.37
2023-04-15T04:36:03.938Z,9.36
2023-04-15T04:41:06.296Z,9.34
2023-04-15T04:46:08.070Z,9.36
2023-04-15T04:51:10.018Z,9.38
2023-04-15T04:56:11.852Z,9.46
2023-04-15T05:01:13.713Z,9.43
2023-04-15T05:06:15.739Z,9.45
2023-04-15T05:11:17.607Z,9.50
2023-04-15T05:16:20.121Z,9.50
2023-04-15T05:21:22.114Z,9.51
2023-04-15T05:26:24.415Z,9.57
2023-04-15T05:31:26.750Z,9.60
2023-04-15T05:36:28.887Z,9.62
2023-04-15T05:41:30.783Z,9.61
2023-04-15T05:46:32.620Z,9.55
2023-04-15T05:51:34.530Z,9.54
2023-04-15T05:56:37.046Z,9.57
2023-04-15T06:01:38.921Z,9.57
2023-04-15T06:06:41.131Z,9.59
2023-04-15T06:11:42.920Z,9.66
2023-04-15T06:16:44.687Z,9.70
2023-04-15T06:21:46.644Z,9.61
2023-04-15T06:26:48.501Z,9.61
2023-04-15T06:31:50.564Z,9.67
2023-04-15T06:36:52.350Z,9.78
2023-04-15T06:41:54.276Z,9.78
2023-04-15T06:46:56.744Z,9.76
2023-04-15T06:51:58.648Z,9.82
2023-04-15T06:57:00.417Z,9.87
2023-04-15T07:02:02.363Z,9.86
2023-04-15T07:07:04.166Z,9.83
2023-04-15T07:12:05.981Z,9.89
2023-04-15T07:17:09.015Z,9.96
2023-04-15T07:22:11.278Z,10.03
2023-04-15T07:27:13.084Z,10.06
2023-04-15T07:32:14.907Z,10.09
2023-04-15T07:37:16.768Z,10.18
2023-04-15T07:42:18.729Z,10.21
2023-04-15T07:47:21.145Z,10.40
2023-04-15T07:52:23.047Z,10.61
2023-04-15T07:57:24.836Z,10.80
2023-04-15T08:02:27.019Z,10.90
2023-04-15T08:07:28.921Z,11.00
2023-04-15T08:12:30.747Z,11.05
2023-04-15T08:17:32.576Z,11.13
2023-04-15T08:22:34.576Z,11.20
2023-04-15T08:27:36.732Z,11.25
2023-04-15T08:32:38.846Z,11.28
2023-04-15T08:37:40.675Z,11.43
2023-04-15T08:42:49.065Z,11.37
2023-04-15T08:47:56.465Z,11.36
2023-04-15T08:53:01.859Z,11.39
2023-04-15T08:58:04.702Z,11.60
2023-04-15T09:03:07.550Z,11.76
2023-04-15T09:08:09.620Z,11.65
2023-04-15T09:13:12.273Z,11.44
2023-04-15T09:18:27.240Z,11.35
2023-04-15T09:23:29.060Z,11.33
2023-04-15T09:28:31.625Z,11.42
2023-04-15T09:33:33.407Z,11.53
2023-04-15T09:38:35.159Z,11.56
2023-04-15T09:43:40.886Z,11.57
2023-04-15T09:48:42.790Z,11.63
2023-04-15T09:53:44.562Z,11.68
2023-04-15T09:58:46.777Z,11.66
2023-04-15T10:03:49.630Z,11.69
2023-04-15T10:08:51.671Z,11.73
2023-04-15T10:13:54.968Z,11.72
2023-04-15T10:18:58.710Z,11.66
2023-04-15T10:24:02.283Z,11.68
2023-04-15T10:29:05.009Z,11.65
2023-04-15T10:34:07.721Z,11.60
2023-04-15T10:39:45.272Z,11.52
2023-04-15T10:44:51.962Z,11.54
2023-04-15T10:50:03.720Z,11.51
2023-04-15T10:55:14.340Z,11.48
2023-04-15T11:00:17.932Z,11.47
2023-04-15T11:05:21.570Z,11.59
2023-04-15T11:10:31.335Z,11.65
2023-04-15T11:15:43.123Z,11.71
2023-04-15T11:20:52.720Z,11.70
2023-04-15T11:25:58.464Z,11.67
2023-04-15T11:31:07.360Z,11.64
2023-04-15T11:36:10.779Z,11.55
2023-04-15T11:41:12.935Z,11.54
2023-04-15T11:46:16.431Z,11.65
2023-04-15T11:51:21.086Z,11.71
2023-04-15T11:56:25.395Z,11.71
2023-04-15T12:01:39.666Z,11.74
2023-04-15T12:06:41.890Z,11.77
2023-04-15T12:11:53.316Z,11.80
2023-04-15T12:17:00.120Z,11.88
2023-04-15T12:22:08.991Z,11.89
2023-04-15T12:27:16.889Z,11.83
2023-04-15T12:32:22.948Z,11.86
2023-04-15T12:37:24.758Z,11.92
2023-04-15T12:42:27.759Z,11.96
2023-04-15T12:47:29.854Z,12.03
2023-04-15T12:52:32.352Z,12.06
2023-04-15T12:57:34.565Z,11.98
2023-04-15T13:02:37.136Z,11.89
2023-04-15T13:07:39.107Z,11.90
2023-04-15T13:12:41.721Z,11.99
2023-04-15T13:17:43.557Z,12.04
2023-04-15T13:22:45.532Z,12.05
2023-04-15T13:27:47.380Z,12.12
2023-04-15T13:32:50.886Z,12.22
2023-04-15T13:37:55.354Z,12.29
2023-04-15T13:42:58.664Z,12.46
2023-04-15T13:48:00.635Z,12.63
2023-04-15T13:53:02.563Z,12.73
2023-04-15T13:58:04.635Z,12.84
2023-04-15T14:03:06.743Z,12.95
2023-04-15T14:08:08.698Z,12.98
2023-04-15T14:13:10.619Z,13.06
2023-04-15T14:18:12.431Z,13.12
2023-04-15T14:23:14.450Z,13.23
2023-04-15T14:28:16.688Z,13.36
2023-04-15T14:33:18.662Z,13.43
2023-04-15T14:38:22.739Z,13.42
2023-04-15T14:43:24.628Z,13.50
2023-04-15T14:48:26.720Z,13.57
2023-04-15T14:53:28.808Z,13.60
2023-04-15T14:58:30.588Z,13.66
2023-04-15T15:03:33.333Z,13.70
2023-04-15T15:08:37.200Z,13.84
2023-04-15T15:13:39.921Z,13.98
2023-04-15T15:18:42.268Z,14.08
2023-04-15T15:23:44.952Z,14.17
2023-04-15T15:28:47.287Z,14.23
2023-04-15T15:33:49.579Z,14.22
2023-04-15T15:38:52.142Z,14.19
2023-04-15T15:43:54.600Z,14.17
2023-04-15T15:48:56.457Z,14.08
2023-04-15T15:53:58.242Z,14.06
2023-04-15T15:59:00.057Z,14.05
2023-04-15T16:04:02.076Z,14.00
2023-04-15T16:09:04.449Z,14.00
2023-04-15T16:14:06.416Z,13.97
2023-04-15T16:19:08.181Z,13.91
2023-04-15T16:24:10.023Z,13.86
2023-04-15T16:29:11.846Z,13.84
2023-04-15T16:34:15.892Z,13.77
2023-04-15T16:39:17.678Z,13.71
2023-04-15T16:44:20.133Z,13.63
2023-04-15T16:49:22.111Z,13.58
2023-04-15T16:54:23.985Z,13.56
2023-04-15T16:59:26.023Z,13.56
2023-04-15T17:04:28.740Z,13.54
2023-04-15T17:09:30.612Z,13.53
2023-04-15T17:14:33.358Z,13.52
2023-04-15T17:19:35.224Z,13.52
2023-04-15T17:24:37.043Z,13.51
2023-04-15T17:29:38.879Z,13.50
2023-04-15T17:34:49.414Z,13.47
2023-04-15T17:39:53.026Z,13.44
2023-04-15T17:44:55.081Z,13.41
2023-04-15T17:49:56.849Z,13.37
2023-04-15T17:54:58.683Z,13.32
2023-04-15T18:00:00.902Z,13.25
2023-04-15T18:05:03.270Z,13.12
2023-04-15T18:10:06.026Z,12.95
2023-04-15T18:15:09.541Z,12.79
2023-04-15T18:20:12.620Z,12.78
2023-04-15T18:25:15.339Z,12.71
2023-04-15T18:30:17.846Z,12.56
2023-04-15T18:35:21.270Z,12.38
2023-04-15T18:40:23.260Z,12.27
2023-04-15T18:45:26.763Z,12.21
2023-04-15T18:50:29.198Z,12.14
2023-04-15T18:55:31.425Z,12.13
2023-04-15T19:00:33.717Z,12.20
2023-04-15T19:05:36.912Z,12.16
2023-04-15T19:10:39.405Z,12.02
2023-04-15T19:15:42.067Z,12.05
2023-04-15T19:20:44.114Z,12.11
2023-04-15T19:25:45.906Z,12.13
2023-04-15T19:30:48.402Z,12.13
2023-04-15T19:35:50.776Z,12.11
2023-04-15T19:40:52.677Z,12.06
2023-04-15T19:45:54.956Z,11.89
2023-04-15T19:50:58.242Z,11.82
2023-04-15T19:56:00.485Z,11.79
2023-04-15T20:01:02.402Z,11.73
2023-04-15T20:06:04.332Z,11.63
2023-04-15T20:11:06.246Z,11.54
2023-04-15T20:16:08.175Z,11.43
2023-04-15T20:21:10.039Z,11.36
2023-04-15T20:26:11.801Z,11.28
2023-04-15T20:31:13.642Z,11.17
2023-04-15T20:36:15.535Z,11.07
2023-04-15T20:41:17.482Z,11.05
2023-04-15T20:46:21.409Z,11.06
2023-04-15T20:51:23.586Z,11.07
2023-04-15T20:56:25.383Z,11.11
2023-04-15T21:01:27.439Z,11.12
2023-04-15T21:06:29.262Z,10.99
2023-04-15T21:11:53.305Z,10.85
2023-04-15T21:16:53.794Z,10.75
2023-04-15T21:21:55.639Z,10.80
2023-04-15T21:26:57.636Z,10.87
2023-04-15T21:31:59.427Z,10.94
2023-04-15T21:37:01.472Z,10.88
2023-04-15T21:42:03.439Z,10.75
2023-04-15T21:47:05.328Z,10.66
2023-04-15T21:52:07.289Z,10.57
2023-04-15T21:57:09.048Z,10.51
2023-04-15T22:02:10.966Z,10.51
2023-04-15T22:07:12.787Z,10.52
2023-04-15T22:12:14.848Z,10.61
2023-04-15T22:17:16.664Z,10.63
2023-04-15T22:22:18.436Z,10.43
2023-04-15T22:27:21.766Z,10.43
2023-04-15T22:32:23.557Z,10.43
2023-04-15T22:37:25.688Z,10.39
2023-04-15T22:42:27.508Z,10.35
2023-04-15T22:47:29.597Z,10.25
2023-04-15T22:52:31.564Z,10.20
2023-04-15T22:57:33.411Z,10.16
2023-04-15T23:02:35.383Z,10.15
2023-04-15T23:07:37.220Z,10.16
2023-04-15T23:12:39.011Z,10.20
2023-04-15T23:17:42.611Z,10.21
2023-04-15T23:22:44.564Z,10.20
2023-04-15T23:27:46.335Z,10.19
2023-04-15T23:32:48.388Z,10.22
2023-04-15T23:37:50.194Z,10.27
2023-04-15T23:42:52.070Z,10.32
2023-04-15T23:47:54.369Z,10.36
2023-04-15T23:52:56.446Z,10.43
2023-04-15T23:57:58.279Z,10.55
